Time;durP1;ratioP1;P1;durP2;ratioP2;P2;SDS_P1;SDS_P2;PMS_P1;PMS_P2;Temp;Humidity;BMP_temperature;BMP_pressure;BME280_temperature;BME280_humidity;BME280_pressure;Samples;Min_cycle;Max_cycle;Signal;HPM_P1;HPM_P2
2022/08/17 00:00:54;;;;;;;7.57;4.35;;;18.90;82.30;;;;;;5055823;28;20036;-67
2022/08/17 00:03:26;;;;;;;7.35;4.15;;;19.10;81.40;;;;;;5054082;28;20036;-67
2022/08/17 00:06:02;;;;;;;5.95;3.58;;;19.20;80.90;;;;;;5058990;28;20025;-67
2022/08/17 00:08:35;;;;;;;8.73;4.32;;;19.30;80.90;;;;;;5053406;28;20083;-67
2022/08/17 00:11:04;;;;;;;11.05;4.68;;;19.40;80.60;;;;;;5054466;28;20035;-67
2022/08/17 00:13:34;;;;;;;10.45;4.70;;;19.50;80.10;;;;;;5054466;28;20102;-68
2022/08/17 00:16:08;;;;;;;6.75;4.22;;;19.70;79.50;;;;;;5064108;28;20024;-68
2022/08/17 00:18:34;;;;;;;12.80;4.55;;;19.80;79.00;;;;;;5056655;28;20021;-68
2022/08/17 00:21:02;;;;;;;8.23;4.38;;;19.90;78.60;;;;;;5054142;28;20911;-68
2022/08/17 00:23:27;;;;;;;7.28;4.30;;;20.00;78.30;;;;;;5054515;28;20059;-68
2022/08/17 00:25:53;;;;;;;8.43;4.07;;;20.10;77.80;;;;;;5053632;28;20034;-68
2022/08/17 00:28:20;;;;;;;7.05;4.10;;;20.20;77.50;;;;;;5070564;28;20052;-68
2022/08/17 00:30:47;;;;;;;7.53;4.28;;;20.20;77.30;;;;;;5075982;28;20287;-68
2022/08/17 00:33:17;;;;;;;8.30;4.43;;;20.30;77.00;;;;;;5077537;28;20021;-68
2022/08/17 00:35:45;;;;;;;6.93;3.95;;;20.30;77.10;;;;;;5074444;28;20436;-68
2022/08/17 00:38:11;;;;;;;7.85;4.00;;;20.30;77.00;;;;;;5077397;28;20107;-68
2022/08/17 00:41:02;;;;;;;8.38;4.07;;;20.40;77.00;;;;;;5063062;28;20028;-68
2022/08/17 00:43:45;;;;;;;8.40;4.13;;;20.40;77.10;;;;;;5068888;28;20154;-68
2022/08/17 00:46:16;;;;;;;9.20;4.43;;;20.40;76.80;;;;;;5063641;28;20032;-68
2022/08/17 00:48:45;;;;;;;9.77;4.38;;;20.50;76.60;;;;;;5072452;28;20048;-68
2022/08/17 00:51:13;;;;;;;10.02;4.63;;;20.50;76.50;;;;;;5054469;28;20044;-67
2022/08/17 00:53:44;;;;;;;8.73;4.72;;;20.60;76.50;;;;;;5052591;28;20115;-68
2022/08/17 00:56:21;;;;;;;11.32;4.30;;;20.60;76.50;;;;;;5053330;28;20480;-68
2022/08/17 00:58:50;;;;;;;6.97;4.30;;;20.60;76.40;;;;;;5053362;28;20029;-68
2022/08/17 01:01:16;;;;;;;11.10;4.82;;;20.60;76.50;;;;;;5054387;28;20410;-68
2022/08/17 01:03:42;;;;;;;10.63;5.10;;;20.60;76.50;;;;;;5053607;28;20044;-68
2022/08/17 01:06:09;;;;;;;8.73;4.25;;;20.60;76.50;;;;;;5052527;28;20028;-68
2022/08/17 01:08:37;;;;;;;7.53;3.90;;;20.50;76.70;;;;;;5052564;28;20044;-68
2022/08/17 01:11:04;;;;;;;8.40;4.38;;;20.50;76.70;;;;;;5059929;28;20077;-68
2022/08/17 01:13:37;;;;;;;8.82;4.25;;;20.50;76.40;;;;;;5051711;28;20035;-68
2022/08/17 01:16:08;;;;;;;7.00;4.10;;;20.60;76.40;;;;;;5059333;28;20063;-68
2022/08/17 01:18:34;;;;;;;9.02;4.38;;;20.60;76.20;;;;;;5068042;28;20017;-68
2022/08/17 01:21:07;;;;;;;8.60;4.78;;;20.60;76.20;;;;;;5052626;28;20036;-68
2022/08/17 01:23:33;;;;;;;8.68;4.38;;;20.60;76.30;;;;;;5054191;28;20094;-67
2022/08/17 01:26:00;;;;;;;7.70;4.38;;;20.50;76.30;;;;;;5059263;28;20037;-68
2022/08/17 01:28:33;;;;;;;9.35;4.60;;;20.40;76.80;;;;;;5063959;28;20426;-68
2022/08/17 01:31:03;;;;;;;11.23;4.35;;;20.40;77.00;;;;;;5060561;28;20041;-68
2022/08/17 01:33:29;;;;;;;8.40;4.82;;;20.20;77.60;;;;;;5056023;28;20070;-68
2022/08/17 01:35:55;;;;;;;8.57;4.63;;;20.00;78.50;;;;;;5073664;28;20021;-68
2022/08/17 01:38:26;;;;;;;8.52;4.63;;;19.90;78.60;;;;;;5076280;28;20055;-68
2022/08/17 01:40:57;;;;;;;8.18;5.18;;;19.70;79.20;;;;;;5075204;28;20038;-68
2022/08/17 01:43:36;;;;;;;10.32;5.00;;;19.60;79.80;;;;;;5076346;28;20048;-68
2022/08/17 01:46:02;;;;;;;8.05;4.93;;;19.50;80.10;;;;;;5076387;28;20052;-68
2022/08/17 01:48:32;;;;;;;7.20;4.93;;;19.40;80.20;;;;;;5075297;28;20089;-68
2022/08/17 01:50:59;;;;;;;8.88;5.03;;;19.30;80.50;;;;;;5056761;28;20029;-68
2022/08/17 01:53:36;;;;;;;8.45;5.07;;;19.10;81.20;;;;;;5056106;28;20021;-68
2022/08/17 01:56:08;;;;;;;7.72;4.93;;;19.00;81.90;;;;;;5054938;28;20024;-68
2022/08/17 01:58:37;;;;;;;8.07;5.47;;;18.80;82.60;;;;;;5056243;28;20078;-68
2022/08/17 02:01:06;;;;;;;7.90;5.32;;;18.50;83.70;;;;;;5056116;28;20027;-68
2022/08/17 02:03:34;;;;;;;10.07;5.38;;;18.30;84.50;;;;;;5057806;28;20152;-68
2022/08/17 02:06:04;;;;;;;9.15;5.30;;;18.20;84.90;;;;;;5056204;28;20112;-68
2022/08/17 02:08:34;;;;;;;8.52;5.25;;;18.10;85.50;;;;;;5055589;28;20056;-68
2022/08/17 02:11:04;;;;;;;8.60;5.40;;;18.00;85.80;;;;;;5054657;28;20025;-68
2022/08/17 02:13:32;;;;;;;10.02;5.50;;;18.00;86.10;;;;;;5055910;28;20032;-68
2022/08/17 02:15:59;;;;;;;9.23;5.47;;;18.00;86.10;;;;;;5055863;28;20024;-68
2022/08/17 02:18:25;;;;;;;9.50;5.15;;;18.00;86.10;;;;;;5058272;28;20028;-68
2022/08/17 02:20:51;;;;;;;12.45;5.18;;;17.90;86.30;;;;;;5075809;28;20021;-68
2022/08/17 02:23:19;;;;;;;8.23;5.30;;;17.80;86.50;;;;;;5075782;28;20024;-68
2022/08/17 02:25:47;;;;;;;9.15;5.70;;;17.70;87.30;;;;;;5074742;28;20106;-68
2022/08/17 02:28:13;;;;;;;9.38;5.63;;;17.70;87.10;;;;;;5075805;28;20034;-68
2022/08/17 02:30:40;;;;;;;8.60;4.88;;;17.60;87.20;;;;;;5075783;28;20414;-68
2022/08/17 02:33:07;;;;;;;8.63;5.38;;;17.60;87.40;;;;;;5075263;28;20040;-68
2022/08/17 02:35:37;;;;;;;8.82;5.40;;;17.50;87.70;;;;;;5075631;28;20048;-68
2022/08/17 02:38:07;;;;;;;8.25;5.68;;;17.50;87.70;;;;;;5075849;28;20021;-68
2022/08/17 02:40:33;;;;;;;9.02;5.13;;;17.40;88.40;;;;;;5074419;28;20021;-68
2022/08/17 02:42:59;;;;;;;9.90;5.55;;;17.30;88.90;;;;;;5075741;28;20052;-68
2022/08/17 02:45:25;;;;;;;7.95;5.20;;;17.10;89.50;;;;;;5075784;28;20029;-68
2022/08/17 02:47:52;;;;;;;7.80;5.53;;;17.00;90.00;;;;;;5074248;28;20040;-68
2022/08/17 02:50:20;;;;;;;12.80;6.10;;;16.90;90.30;;;;;;5075700;28;20020;-67
2022/08/17 02:52:47;;;;;;;7.80;5.70;;;16.90;90.50;;;;;;5075502;28;20372;-67
2022/08/17 02:55:31;;;;;;;10.18;6.03;;;16.80;91.10;;;;;;5074352;28;20029;-66
2022/08/17 02:57:57;;;;;;;9.30;5.70;;;16.60;91.40;;;;;;5075721;28;20024;-66
2022/08/17 03:00:32;;;;;;;8.68;5.68;;;16.70;91.30;;;;;;5078476;28;20036;-66
2022/08/17 03:02:59;;;;;;;11.73;5.85;;;16.80;91.00;;;;;;5078056;28;20310;-66
2022/08/17 03:05:28;;;;;;;7.65;5.75;;;16.90;91.00;;;;;;5078334;28;20103;-67
2022/08/17 03:07:55;;;;;;;8.77;6.32;;;17.00;90.60;;;;;;5071097;28;20046;-67
2022/08/17 03:10:24;;;;;;;10.38;5.70;;;17.00;90.90;;;;;;5053834;28;20041;-68
2022/08/17 03:12:51;;;;;;;7.28;5.20;;;16.90;91.30;;;;;;5054698;28;20505;-67
2022/08/17 03:15:26;;;;;;;8.77;6.43;;;16.70;91.70;;;;;;5057821;28;20364;-67
2022/08/17 03:17:53;;;;;;;8.85;6.47;;;16.60;92.20;;;;;;5058496;28;20017;-67
2022/08/17 03:20:20;;;;;;;10.82;6.95;;;16.50;92.50;;;;;;5054383;28;20036;-67
2022/08/17 03:22:52;;;;;;;9.15;7.38;;;16.50;92.90;;;;;;5060255;28;20040;-67
2022/08/17 03:25:30;;;;;;;8.23;6.70;;;16.60;92.90;;;;;;5061839;28;20047;-67
2022/08/17 03:27:57;;;;;;;9.70;7.35;;;16.60;93.10;;;;;;5066066;28;20028;-68
2022/08/17 03:30:25;;;;;;;10.27;7.47;;;16.60;93.20;;;;;;5059493;28;20036;-68
2022/08/17 03:32:53;;;;;;;10.10;7.20;;;16.40;93.40;;;;;;5058529;28;20025;-68
2022/08/17 03:35:22;;;;;;;10.50;7.53;;;16.30;93.70;;;;;;5062696;28;20017;-68
2022/08/17 03:37:51;;;;;;;10.80;6.80;;;16.20;94.10;;;;;;5059504;28;20311;-68
2022/08/17 03:40:17;;;;;;;11.02;7.50;;;16.20;94.10;;;;;;5066077;28;20021;-68
2022/08/17 03:42:43;;;;;;;10.27;8.00;;;16.20;94.10;;;;;;5078499;28;20031;-68
2022/08/17 03:45:14;;;;;;;10.55;7.50;;;16.20;94.30;;;;;;5078672;28;20021;-68
2022/08/17 03:58:46;;;;;;;10.75;7.20;;;16.10;94.50;;;;;;5078290;28;20039;-68
2022/08/17 04:01:12;;;;;;;15.40;8.30;;;16.00;94.60;;;;;;5078265;28;20020;-68
2022/08/17 04:03:38;;;;;;;11.18;7.53;;;16.10;94.70;;;;;;5078160;28;20121;-68
2022/08/17 04:06:04;;;;;;;11.27;7.13;;;16.20;94.60;;;;;;5071212;28;20060;-68
2022/08/17 04:08:30;;;;;;;10.55;6.88;;;16.20;94.50;;;;;;5058175;28;20049;-68
2022/08/17 04:10:56;;;;;;;10.40;7.30;;;16.20;94.50;;;;;;5056101;28;20036;-68
2022/08/17 04:13:22;;;;;;;10.88;7.13;;;16.30;94.10;;;;;;5060097;28;20040;-68
2022/08/17 04:15:48;;;;;;;8.32;6.47;;;16.40;94.00;;;;;;5057976;28;20325;-68
2022/08/17 04:18:17;;;;;;;12.23;7.93;;;16.50;93.90;;;;;;5068045;28;20083;-68
2022/08/17 04:20:43;;;;;;;10.02;6.78;;;16.50;93.80;;;;;;5066664;28;20099;-68
2022/08/17 04:23:11;;;;;;;10.73;7.28;;;16.50;93.90;;;;;;5063387;28;20044;-68
2022/08/17 04:25:41;;;;;;;9.70;6.53;;;16.50;93.70;;;;;;5056664;28;20100;-68
2022/08/17 04:28:07;;;;;;;9.70;6.40;;;16.50;93.60;;;;;;5061440;28;20017;-68
2022/08/17 04:30:34;;;;;;;8.88;6.72;;;16.60;93.50;;;;;;5077858;28;20371;-68
2022/08/17 04:33:07;;;;;;;9.10;6.85;;;16.70;93.30;;;;;;5080602;28;20025;-68
2022/08/17 04:35:39;;;;;;;8.48;6.13;;;16.70;93.10;;;;;;5076210;28;20432;-68
2022/08/17 04:38:06;;;;;;;10.70;6.47;;;16.80;93.10;;;;;;5076989;28;20033;-68
2022/08/17 04:43:20;;;;;;;8.20;6.10;;;16.90;92.80;;;;;;5058073;28;20056;-68
2022/08/17 04:45:52;;;;;;;8.90;6.45;;;17.10;92.60;;;;;;5069327;28;20064;-68
2022/08/17 04:48:18;;;;;;;11.18;6.28;;;17.10;92.80;;;;;;5075889;28;20033;-68
2022/08/17 04:50:46;;;;;;;9.60;6.35;;;17.20;92.30;;;;;;5063140;28;20037;-68
2022/08/17 04:53:12;;;;;;;10.30;5.70;;;17.40;91.40;;;;;;5070422;28;20040;-68
2022/08/17 04:55:39;;;;;;;11.10;5.95;;;17.60;91.40;;;;;;5076009;28;20321;-68
2022/08/17 04:58:04;;;;;;;7.80;5.88;;;17.90;89.70;;;;;;5077141;28;20016;-68
2022/08/17 05:00:31;;;;;;;8.07;5.75;;;18.10;90.40;;;;;;5077228;28;20124;-68
2022/08/17 05:02:56;;;;;;;7.78;5.50;;;18.10;90.30;;;;;;5077163;28;20024;-68
2022/08/17 05:05:28;;;;;;;8.35;5.68;;;18.20;89.70;;;;;;5077058;28;20032;-68
2022/08/17 05:07:56;;;;;;;7.00;5.55;;;18.20;89.60;;;;;;5064459;28;20322;-68
2022/08/17 05:10:24;;;;;;;8.68;5.80;;;18.10;90.20;;;;;;5055799;28;20479;-68
2022/08/17 05:13:00;;;;;;;8.88;6.00;;;17.90;90.70;;;;;;5056736;28;20025;-68
2022/08/17 05:15:27;;;;;;;8.40;5.70;;;17.80;90.60;;;;;;5056798;28;20025;-68
2022/08/17 05:17:52;;;;;;;8.75;6.30;;;17.80;90.90;;;;;;5056888;28;20306;-68
2022/08/17 05:20:19;;;;;;;9.02;5.43;;;17.80;91.10;;;;;;5056610;28;20100;-68
2022/08/17 05:22:50;;;;;;;6.88;5.30;;;17.90;91.10;;;;;;5069080;28;20084;-68
2022/08/17 05:25:20;;;;;;;7.28;5.95;;;17.90;91.40;;;;;;5074582;28;20024;-68
2022/08/17 05:27:46;;;;;;;8.57;6.15;;;18.00;91.50;;;;;;5076376;28;20406;-68
2022/08/17 05:30:16;;;;;;;9.80;5.47;;;18.20;91.40;;;;;;5076532;28;20070;-68
2022/08/17 05:32:57;;;;;;;8.43;5.15;;;18.30;91.20;;;;;;5076319;28;20031;-68
2022/08/17 05:35:25;;;;;;;9.43;6.05;;;18.60;90.20;;;;;;5076339;28;20027;-68
2022/08/17 05:37:51;;;;;;;8.07;5.75;;;19.00;89.60;;;;;;5075827;28;20028;-68
2022/08/17 05:40:17;;;;;;;7.30;5.13;;;19.30;87.70;;;;;;5074472;28;20027;-68
2022/08/17 05:42:43;;;;;;;7.90;5.50;;;19.80;85.50;;;;;;5076277;28;20028;-68
2022/08/17 05:45:10;;;;;;;10.13;6.07;;;20.20;83.80;;;;;;5076183;28;20032;-67
2022/08/17 05:47:39;;;;;;;8.52;5.45;;;20.50;83.40;;;;;;5076029;28;20024;-67
2022/08/17 05:50:06;;;;;;;9.07;5.65;;;20.80;84.00;;;;;;5057835;28;20086;-66
2022/08/17 05:52:54;;;;;;;6.00;4.60;;;20.90;82.80;;;;;;5056056;28;20021;-66
2022/08/17 05:55:38;;;;;;;9.50;5.03;;;21.00;82.80;;;;;;5054844;28;20100;-66
2022/08/17 05:58:44;;;;;;;9.30;5.28;;;21.20;82.60;;;;;;5055808;28;20025;-67
2022/08/17 06:01:22;;;;;;;7.68;5.25;;;21.30;82.80;;;;;;5055928;28;20044;-68
2022/08/17 06:04:10;;;;;;;7.35;4.75;;;21.60;81.30;;;;;;5065978;28;20036;-68
2022/08/17 06:06:40;;;;;;;7.35;5.18;;;21.70;80.70;;;;;;5076195;28;20043;-68
2022/08/17 06:09:30;;;;;;;7.93;4.63;;;21.90;79.90;;;;;;5074730;28;20048;-68
2022/08/17 06:12:25;;;;;;;8.05;4.78;;;22.00;81.20;;;;;;5075911;28;20025;-68
2022/08/17 06:15:23;;;;;;;7.40;4.38;;;22.00;81.10;;;;;;5073674;28;20564;-68
2022/08/17 06:17:55;;;;;;;8.93;4.82;;;21.90;82.80;;;;;;5074519;28;20111;-68
2022/08/17 06:20:22;;;;;;;7.30;4.68;;;21.90;83.40;;;;;;5055891;28;20040;-68
2022/08/17 06:22:51;;;;;;;5.78;4.32;;;22.10;82.20;;;;;;5055720;28;20033;-68
2022/08/17 06:25:30;;;;;;;8.45;4.80;;;22.40;82.30;;;;;;5054632;28;20033;-68
2022/08/17 06:28:11;;;;;;;7.05;5.18;;;22.50;81.80;;;;;;5055787;28;20025;-68
2022/08/17 06:30:49;;;;;;;7.05;4.75;;;22.70;82.00;;;;;;5055853;28;20347;-69
2022/08/17 06:33:24;;;;;;;6.75;4.50;;;22.90;79.70;;;;;;5056850;28;20025;-68
2022/08/17 06:36:18;;;;;;;5.90;4.18;;;23.10;76.80;;;;;;5070448;28;20044;-68
2022/08/17 06:39:01;;;;;;;8.88;4.60;;;23.40;75.40;;;;;;5059822;28;20025;-68
2022/08/17 06:41:54;;;;;;;7.40;4.75;;;23.60;74.90;;;;;;5060026;28;20295;-68
2022/08/17 06:44:25;;;;;;;6.07;4.20;;;23.40;73.40;;;;;;5059642;28;20063;-68
2022/08/17 06:46:59;;;;;;;11.60;4.78;;;23.10;76.60;;;;;;5059627;28;20055;-68
2022/08/17 06:49:48;;;;;;;7.10;4.50;;;22.90;79.60;;;;;;5059799;28;20021;-68
2022/08/17 06:52:33;;;;;;;6.88;4.65;;;22.80;77.70;;;;;;5074479;28;20382;-68
2022/08/17 06:55:05;;;;;;;6.72;4.85;;;22.90;74.80;;;;;;5078232;28;20052;-68
2022/08/17 06:57:36;;;;;;;6.70;4.85;;;22.90;75.50;;;;;;5079456;28;20039;-68
2022/08/17 07:00:15;;;;;;;10.68;4.43;;;22.90;76.50;;;;;;5079343;28;20028;-68
2022/08/17 07:03:14;;;;;;;6.60;4.70;;;22.90;74.90;;;;;;5079454;28;20028;-68
2022/08/17 07:05:42;;;;;;;7.35;4.50;;;23.10;74.60;;;;;;5078058;28;20361;-68
2022/08/17 07:08:20;;;;;;;8.77;4.50;;;23.20;74.50;;;;;;5079097;28;20076;-68
2022/08/17 07:10:50;;;;;;;8.77;4.53;;;23.10;74.90;;;;;;5078073;28;20021;-68
2022/08/17 07:13:37;;;;;;;7.43;4.80;;;23.00;74.80;;;;;;5079105;28;20031;-68
2022/08/17 07:16:37;;;;;;;6.30;4.40;;;22.90;74.10;;;;;;5076287;28;20369;-68
2022/08/17 07:19:04;;;;;;;8.52;4.75;;;22.80;74.90;;;;;;5075143;28;20032;-68
2022/08/17 07:21:45;;;;;;;7.47;4.40;;;22.90;74.80;;;;;;5079051;28;20351;-68
2022/08/17 07:24:52;;;;;;;8.38;5.00;;;23.00;75.00;;;;;;5077957;28;20021;-69
2022/08/17 07:27:22;;;;;;;5.93;4.28;;;23.10;73.90;;;;;;5037071;28;20082;-68
2022/08/17 07:30:00;;;;;;;7.53;4.32;;;23.10;74.50;;;;;;5036898;28;20022;-68
2022/08/17 07:32:30;;;;;;;6.60;4.28;;;23.20;74.20;;;;;;5060752;28;20097;-68
2022/08/17 07:35:07;;;;;;;7.80;4.65;;;23.30;73.50;;;;;;5058983;28;20025;-68
2022/08/17 07:37:35;;;;;;;9.70;4.38;;;23.30;73.30;;;;;;5058657;28;20025;-68
2022/08/17 07:40:30;;;;;;;8.13;4.97;;;23.60;72.90;;;;;;5057354;28;20433;-68
2022/08/17 07:43:14;;;;;;;7.32;4.90;;;23.80;73.30;;;;;;5053934;28;20045;-68
2022/08/17 07:48:48;;;;;;;7.90;4.75;;;24.20;71.00;;;;;;5071446;28;19946;-68
2022/08/17 07:51:30;;;;;;;6.75;4.50;;;24.50;70.20;;;;;;5077145;28;20450;-68
2022/08/17 07:53:59;;;;;;;6.97;4.57;;;24.90;70.60;;;;;;5077205;28;20051;-68
2022/08/17 07:56:36;;;;;;;7.03;4.20;;;25.20;68.90;;;;;;5078422;28;20028;-68
2022/08/17 07:59:36;;;;;;;5.90;4.05;;;25.20;69.30;;;;;;5078440;28;20017;-68
2022/08/17 08:02:21;;;;;;;6.45;4.60;;;25.10;69.20;;;;;;5075725;28;20041;-68
2022/08/17 08:05:00;;;;;;;7.00;4.57;;;25.00;69.50;;;;;;5077025;28;20338;-68
2022/08/17 08:07:30;;;;;;;7.40;4.53;;;24.90;69.60;;;;;;5078187;28;20071;-68
2022/08/17 08:10:13;;;;;;;10.20;4.50;;;24.30;70.80;;;;;;5076847;28;20139;-68
2022/08/17 08:12:38;;;;;;;8.75;5.25;;;23.90;71.60;;;;;;5078081;28;20123;-68
2022/08/17 08:15:32;;;;;;;7.03;4.85;;;23.50;73.00;;;;;;5077975;28;20096;-68
2022/08/17 08:18:01;;;;;;;11.13;4.80;;;23.20;74.10;;;;;;5078038;28;20218;-68
2022/08/17 08:20:34;;;;;;;6.95;4.65;;;23.00;74.50;;;;;;5077644;28;20032;-68
2022/08/17 08:23:29;;;;;;;8.23;4.90;;;22.90;75.00;;;;;;5076889;28;20445;-68
2022/08/17 08:26:07;;;;;;;6.35;4.68;;;22.80;77.10;;;;;;5076509;28;20409;-68
2022/08/17 08:28:50;;;;;;;6.68;4.72;;;22.70;76.70;;;;;;5077767;28;20028;-68
2022/08/17 08:31:43;;;;;;;7.78;5.10;;;22.60;78.90;;;;;;5077681;28;20033;-68
2022/08/17 08:34:31;;;;;;;7.35;5.13;;;22.70;78.50;;;;;;5077668;28;20024;-68
2022/08/17 08:37:29;;;;;;;7.15;4.97;;;22.80;79.20;;;;;;5066694;28;20036;-68
2022/08/17 08:40:16;;;;;;;6.28;4.97;;;22.90;79.20;;;;;;5056476;28;20127;-68
2022/08/17 08:43:02;;;;;;;11.35;5.00;;;23.00;78.30;;;;;;5057450;28;20033;-67
2022/08/17 08:45:55;;;;;;;8.80;5.20;;;23.10;77.50;;;;;;5057313;28;20028;-66
2022/08/17 08:49:00;;;;;;;7.30;4.97;;;23.10;77.40;;;;;;5057442;28;20434;-66
2022/08/17 08:51:54;;;;;;;7.78;4.57;;;23.20;77.10;;;;;;5065684;28;20029;-66
2022/08/17 08:54:38;;;;;;;9.70;5.13;;;23.40;76.30;;;;;;5075793;28;20055;-68
2022/08/17 08:57:32;;;;;;;8.00;4.90;;;23.80;75.90;;;;;;5076884;28;20028;-69
2022/08/17 09:00:19;;;;;;;7.80;4.43;;;24.10;74.90;;;;;;5077326;28;20445;-68
2022/08/17 09:02:45;;;;;;;7.75;4.20;;;24.30;73.20;;;;;;5077183;28;20040;-68
2022/08/17 09:05:19;;;;;;;6.00;3.75;;;24.60;72.10;;;;;;5077039;28;20029;-68
2022/08/17 09:08:14;;;;;;;7.15;4.68;;;25.00;71.40;;;;;;5075408;28;20031;-68
2022/08/17 09:11:04;;;;;;;7.35;4.40;;;25.20;71.40;;;;;;5075889;28;20032;-68
2022/08/17 09:13:50;;;;;;;8.48;4.47;;;25.40;69.40;;;;;;5076832;28;20029;-68
2022/08/17 09:16:21;;;;;;;7.47;4.90;;;25.20;68.70;;;;;;5076710;28;20093;-68
2022/08/17 09:18:52;;;;;;;7.15;4.57;;;24.80;70.10;;;;;;5076746;28;20402;-68
2022/08/17 09:21:41;;;;;;;8.27;5.03;;;24.40;71.30;;;;;;5076437;28;20074;-68
2022/08/17 09:24:17;;;;;;;10.70;5.05;;;24.00;72.20;;;;;;5052034;28;20040;-68
2022/08/17 09:27:01;;;;;;;7.10;4.68;;;23.70;73.50;;;;;;5056685;28;20394;-68
2022/08/17 09:29:33;;;;;;;8.48;4.75;;;23.50;74.20;;;;;;5056574;28;20108;-68
2022/08/17 09:32:03;;;;;;;7.78;5.13;;;23.40;75.00;;;;;;5056435;28;20035;-68
2022/08/17 09:35:07;;;;;;;8.25;5.10;;;23.40;74.90;;;;;;5056480;28;20013;-68
2022/08/17 09:38:17;;;;;;;7.77;5.43;;;23.30;74.80;;;;;;5047181;28;20120;-68
2022/08/17 09:41:22;;;;;;;6.68;4.60;;;23.30;75.10;;;;;;5053099;28;20087;-68
2022/08/17 09:44:01;;;;;;;9.20;5.10;;;23.60;75.50;;;;;;5056426;28;20032;-68
2022/08/17 09:46:42;;;;;;;8.02;4.97;;;24.00;74.80;;;;;;5056216;28;20421;-68
2022/08/17 09:49:15;;;;;;;7.93;4.82;;;24.40;74.10;;;;;;5056333;28;20031;-68
2022/08/17 09:51:54;;;;;;;7.82;4.18;;;24.60;73.70;;;;;;5057265;28;20021;-68
2022/08/17 09:54:31;;;;;;;7.88;4.63;;;24.70;73.60;;;;;;5054976;28;20048;-68
2022/08/17 09:57:30;;;;;;;7.50;4.28;;;25.10;72.80;;;;;;5056190;28;20021;-68
2022/08/17 10:00:25;;;;;;;7.10;4.53;;;25.60;72.30;;;;;;5056019;28;20032;-68
2022/08/17 10:02:54;;;;;;;9.23;3.60;;;26.00;69.40;;;;;;5055990;28;20025;-68
2022/08/17 10:05:51;;;;;;;7.60;4.00;;;25.60;68.80;;;;;;5056106;28;20382;-68
2022/08/17 10:09:14;;;;;;;5.35;3.53;;;25.60;67.80;;;;;;5074321;28;20110;-68
2022/08/17 10:14:50;;;;;;;5.68;3.38;;;26.00;67.90;;;;;;5034531;28;20031;-69
2022/08/17 10:17:41;;;;;;;5.00;3.60;;;26.20;67.40;;;;;;5066097;28;20029;-68
2022/08/17 10:20:15;;;;;;;7.38;3.50;;;26.30;66.40;;;;;;5075879;28;20052;-68
2022/08/17 10:28:28;;;;;;;5.93;3.70;;;26.10;67.20;;;;;;5076281;28;20081;-68
2022/08/17 10:30:58;;;;;;;8.30;3.38;;;26.20;66.90;;;;;;5075800;28;20115;-68
2022/08/17 10:33:32;;;;;;;8.45;3.28;;;26.40;66.40;;;;;;5075666;28;20031;-68
2022/08/17 10:36:05;;;;;;;4.70;3.13;;;26.70;65.60;;;;;;5075988;28;20410;-68
2022/08/17 10:38:35;;;;;;;5.50;3.70;;;26.90;64.50;;;;;;5060789;28;20055;-68
2022/08/17 10:41:01;;;;;;;9.75;3.85;;;26.80;64.80;;;;;;5054764;28;20099;-68
2022/08/17 10:43:52;;;;;;;6.65;3.35;;;26.70;65.30;;;;;;5055709;28;20068;-68
2022/08/17 10:46:45;;;;;;;8.90;3.65;;;27.10;64.90;;;;;;5055718;28;20108;-68
2022/08/17 10:49:24;;;;;;;5.87;3.10;;;27.20;63.90;;;;;;5055592;28;20029;-68
2022/08/17 10:51:58;;;;;;;5.68;3.17;;;28.10;62.80;;;;;;5056351;28;20294;-68
2022/08/17 10:54:24;;;;;;;4.53;2.92;;;29.20;61.10;;;;;;5062462;28;20417;-68
2022/08/17 10:56:55;;;;;;;6.97;3.50;;;29.80;59.90;;;;;;5075599;28;20033;-68
2022/08/17 10:59:49;;;;;;;5.15;3.60;;;29.40;59.70;;;;;;5075577;28;20020;-68
2022/08/17 11:02:24;;;;;;;6.22;3.30;;;29.10;59.50;;;;;;5074035;28;20045;-68
2022/08/17 11:04:59;;;;;;;5.03;3.30;;;29.00;59.40;;;;;;5075565;28;20041;-68
2022/08/17 11:08:15;;;;;;;6.35;3.58;;;28.70;60.50;;;;;;5075447;28;20585;-67
2022/08/17 11:10:59;;;;;;;5.45;3.40;;;28.40;60.40;;;;;;5044720;28;20049;-67
2022/08/17 11:14:05;;;;;;;5.97;3.45;;;28.50;60.40;;;;;;5055215;28;20025;-67
2022/08/17 11:16:59;;;;;;;5.57;3.40;;;28.30;60.10;;;;;;5043705;28;20029;-67
2022/08/17 11:19:42;;;;;;;6.72;3.92;;;27.50;61.60;;;;;;5055174;28;20104;-67
2022/08/17 11:22:36;;;;;;;7.80;4.05;;;26.90;63.70;;;;;;5060415;28;21042;-67
2022/08/17 11:25:42;;;;;;;6.13;4.15;;;26.20;65.20;;;;;;5076372;28;20025;-67
2022/08/17 11:28:34;;;;;;;5.38;3.72;;;25.50;66.80;;;;;;5078796;28;20107;-67
2022/08/17 11:31:23;;;;;;;7.57;4.10;;;25.00;67.70;;;;;;5078902;28;20334;-67
2022/08/17 11:33:57;;;;;;;7.60;4.38;;;24.70;68.50;;;;;;5078737;28;20035;-67
2022/08/17 11:36:44;;;;;;;7.68;4.22;;;24.50;69.40;;;;;;5078777;28;20025;-67
2022/08/17 11:39:27;;;;;;;6.40;4.15;;;24.50;69.80;;;;;;5075044;28;20084;-65
2022/08/17 11:41:57;;;;;;;7.30;4.63;;;24.40;70.60;;;;;;5060137;28;20288;-65
2022/08/17 11:44:36;;;;;;;7.15;4.10;;;24.30;71.10;;;;;;5058646;28;20036;-65
2022/08/17 11:53:04;;;;;;;9.20;4.60;;;26.00;70.30;;;;;;5078509;28;20040;-67
2022/08/17 11:55:35;;;;;;;8.07;4.78;;;26.90;68.50;;;;;;5077188;28;20103;-67
2022/08/17 11:58:25;;;;;;;8.15;4.28;;;27.00;68.20;;;;;;5078292;28;20020;-67
2022/08/17 12:00:56;;;;;;;9.82;4.80;;;27.90;67.10;;;;;;5078223;28;20029;-67
2022/08/17 12:03:47;;;;;;;7.15;4.32;;;28.40;65.50;;;;;;5078268;28;20414;-67
2022/08/17 12:06:34;;;;;;;6.00;3.90;;;28.90;64.90;;;;;;5078364;28;20097;-67
2022/08/17 12:09:23;;;;;;;6.53;3.95;;;29.30;63.70;;;;;;5076801;28;20044;-67
2022/08/17 12:11:56;;;;;;;7.18;4.32;;;29.50;63.30;;;;;;5077339;28;20075;-67
2022/08/17 12:14:29;;;;;;;6.65;4.20;;;29.80;60.50;;;;;;5058103;28;20128;-67
2022/08/17 12:16:58;;;;;;;8.75;3.95;;;29.10;63.00;;;;;;5058077;28;20071;-67
2022/08/17 12:19:28;;;;;;;6.88;3.53;;;28.70;62.60;;;;;;5057920;28;20100;-66
2022/08/17 12:22:03;;;;;;;7.68;3.83;;;28.40;61.50;;;;;;5057922;28;20059;-67
2022/08/17 12:24:46;;;;;;;6.82;3.28;;;28.70;60.50;;;;;;5056690;28;20314;-68
2022/08/17 12:27:21;;;;;;;5.13;3.40;;;28.80;59.10;;;;;;5062967;28;20019;-66
2022/08/17 12:29:47;;;;;;;6.05;3.47;;;29.30;59.40;;;;;;5077844;28;20032;-67
2022/08/17 12:32:17;;;;;;;6.47;3.47;;;29.50;58.20;;;;;;5076790;28;20406;-67
2022/08/17 12:34:46;;;;;;;5.30;3.33;;;29.70;57.20;;;;;;5077725;28;20016;-67
2022/08/17 12:37:15;;;;;;;5.63;3.50;;;29.70;58.10;;;;;;5077686;28;20031;-67
2022/08/17 12:40:16;;;;;;;8.80;3.53;;;30.00;55.70;;;;;;5076529;28;20021;-67
2022/08/17 12:43:18;;;;;;;6.95;3.40;;;30.50;55.30;;;;;;5076107;28;20028;-67
2022/08/17 12:45:55;;;;;;;6.90;3.45;;;30.30;54.40;;;;;;5076680;28;20039;-67
2022/08/17 12:48:23;;;;;;;5.13;3.30;;;29.30;56.90;;;;;;5077549;28;20357;-67
2022/08/17 12:50:50;;;;;;;5.38;3.38;;;29.40;55.60;;;;;;5077137;28;20064;-67
2022/08/17 12:53:22;;;;;;;5.38;3.10;;;29.90;56.10;;;;;;5076830;28;20050;-67
2022/08/17 12:55:49;;;;;;;7.00;3.05;;;30.50;53.60;;;;;;5076098;28;20028;-67
2022/08/17 12:58:23;;;;;;;4.88;2.97;;;31.30;53.50;;;;;;5077176;28;20035;-67
2022/08/17 13:01:08;;;;;;;5.30;2.90;;;31.80;52.80;;;;;;5077175;28;20021;-67
2022/08/17 13:03:48;;;;;;;6.45;3.30;;;31.50;52.50;;;;;;5077300;28;20036;-67
2022/08/17 13:06:30;;;;;;;5.43;3.47;;;31.20;52.90;;;;;;5076987;28;20073;-67
2022/08/17 13:09:06;;;;;;;7.32;3.50;;;31.00;53.90;;;;;;5074128;28;20048;-67
2022/08/17 13:11:32;;;;;;;5.47;3.15;;;31.10;52.20;;;;;;5076979;28;20099;-67
2022/08/17 13:14:08;;;;;;;6.50;3.20;;;30.60;52.30;;;;;;5076892;28;20064;-67
2022/08/17 13:16:34;;;;;;;5.40;3.42;;;31.20;52.00;;;;;;5074548;28;20449;-67
2022/08/17 13:19:13;;;;;;;5.60;3.40;;;31.50;52.90;;;;;;5076003;28;20052;-67
2022/08/17 13:21:50;;;;;;;6.70;3.22;;;31.60;51.70;;;;;;5076813;28;20019;-67
2022/08/17 13:24:29;;;;;;;6.40;3.30;;;31.00;51.70;;;;;;5075281;28;20036;-67
2022/08/17 13:27:00;;;;;;;6.00;3.15;;;31.20;50.20;;;;;;5076717;28;20414;-67
2022/08/17 13:29:44;;;;;;;6.13;3.33;;;31.40;50.80;;;;;;5076694;28;20040;-66
2022/08/17 13:32:10;;;;;;;6.78;4.00;;;32.10;50.00;;;;;;5076544;28;20104;-67
2022/08/17 13:34:44;;;;;;;7.88;3.75;;;32.20;49.90;;;;;;5066766;28;20047;-67
2022/08/17 13:37:29;;;;;;;6.57;3.38;;;31.60;49.30;;;;;;5071645;28;20052;-67
2022/08/17 13:40:07;;;;;;;6.95;3.42;;;30.90;50.40;;;;;;5075347;28;20414;-67
2022/08/17 13:42:41;;;;;;;6.38;3.58;;;30.80;51.90;;;;;;5076361;28;20035;-67
2022/08/17 13:45:25;;;;;;;6.40;3.47;;;30.80;52.10;;;;;;5076417;28;20024;-67
2022/08/17 13:48:25;;;;;;;6.55;3.40;;;31.40;51.20;;;;;;5076577;28;20032;-67
2022/08/17 13:50:54;;;;;;;4.95;3.10;;;31.80;50.80;;;;;;5052760;28;20479;-68
2022/08/17 13:53:36;;;;;;;5.78;3.20;;;32.20;51.50;;;;;;5076006;28;20078;-67
2022/08/17 13:56:07;;;;;;;6.25;3.47;;;32.50;49.20;;;;;;5075573;28;20048;-68
2022/08/17 13:58:59;;;;;;;7.05;3.17;;;32.30;49.60;;;;;;5076467;28;20032;-67
2022/08/17 14:01:33;;;;;;;5.43;3.30;;;31.70;50.70;;;;;;5076263;28;20028;-67